sensor_id;sensor_type;location;lat;lon;timestamp;pressure;altitude;pressure_sealevel;temperature;humidity
49315;BME280;36672;50.710;12.498;2023-04-02T00:05:39;97564.84;;;8.10;94.35
49315;BME280;36672;50.710;12.498;2023-04-02T00:08:21;97561.97;;;8.05;94.63
49315;BME280;36672;50.710;12.498;2023-04-02T00:15:42;97576.44;;;7.91;94.55
49315;BME280;36672;50.710;12.498;2023-04-02T00:18:15;97578.94;;;7.86;94.75
49315;BME280;36672;50.710;12.498;2023-04-02T00:20:43;97588.84;;;7.72;94.52
49315;BME280;36672;50.710;12.498;2023-04-02T00:23:11;97591.72;;;7.70;94.68
49315;BME280;36672;50.710;12.498;2023-04-02T00:25:37;97594.63;;;7.68;94.72
49315;BME280;36672;50.710;12.498;2023-04-02T00:28:10;97591.09;;;7.61;94.55
49315;BME280;36672;50.710;12.498;2023-04-02T00:30:36;97607.19;;;7.55;94.46
49315;BME280;36672;50.710;12.498;2023-04-02T00:33:01;97607.63;;;7.51;94.61
49315;BME280;36672;50.710;12.498;2023-04-02T00:35:27;97605.31;;;7.48;94.84
49315;BME280;36672;50.710;12.498;2023-04-02T00:37:53;97616.06;;;7.42;94.57
49315;BME280;36672;50.710;12.498;2023-04-02T00:40:25;97615.41;;;7.40;94.92
49315;BME280;36672;50.710;12.498;2023-04-02T00:42:52;97634.22;;;7.40;95.17
49315;BME280;36672;50.710;12.498;2023-04-02T00:45:28;97627.22;;;7.39;95.17
49315;BME280;36672;50.710;12.498;2023-04-02T00:47:55;97631.13;;;7.36;94.94
49315;BME280;36672;50.710;12.498;2023-04-02T00:50:22;97635.44;;;7.30;94.48
49315;BME280;36672;50.710;12.498;2023-04-02T00:52:51;97638.94;;;7.24;94.76
49315;BME280;36672;50.710;12.498;2023-04-02T00:55:24;97650.88;;;7.15;94.52
49315;BME280;36672;50.710;12.498;2023-04-02T00:57:52;97642.38;;;7.11;94.31
49315;BME280;36672;50.710;12.498;2023-04-02T01:00:22;97649.56;;;7.04;94.36
49315;BME280;36672;50.710;12.498;2023-04-02T01:05:35;97656.94;;;6.89;93.84
49315;BME280;36672;50.710;12.498;2023-04-02T01:15:26;97676.72;;;6.81;94.25
49315;BME280;36672;50.710;12.498;2023-04-02T01:23:10;97682.19;;;6.66;94.07
49315;BME280;36672;50.710;12.498;2023-04-02T01:25:56;97690.00;;;6.61;93.85
49315;BME280;36672;50.710;12.498;2023-04-02T01:28:25;97697.44;;;6.59;93.88
49315;BME280;36672;50.710;12.498;2023-04-02T01:30:54;97695.69;;;6.51;93.53
49315;BME280;36672;50.710;12.498;2023-04-02T01:33:21;97709.31;;;6.49;93.74
49315;BME280;36672;50.710;12.498;2023-04-02T01:35:48;97706.19;;;6.46;93.74
49315;BME280;36672;50.710;12.498;2023-04-02T01:38:18;97717.88;;;6.38;93.37
49315;BME280;36672;50.710;12.498;2023-04-02T01:40:54;97712.91;;;6.35;93.79
49315;BME280;36672;50.710;12.498;2023-04-02T01:45:48;97722.63;;;6.36;94.27
49315;BME280;36672;50.710;12.498;2023-04-02T01:48:15;97729.00;;;6.35;93.89
49315;BME280;36672;50.710;12.498;2023-04-02T01:50:42;97731.88;;;6.33;93.84
49315;BME280;36672;50.710;12.498;2023-04-02T01:53:09;97740.25;;;6.24;93.28
49315;BME280;36672;50.710;12.498;2023-04-02T01:55:41;97736.84;;;6.15;93.21
49315;BME280;36672;50.710;12.498;2023-04-02T01:58:07;97747.53;;;6.08;93.49
49315;BME280;36672;50.710;12.498;2023-04-02T02:00:33;97749.09;;;6.02;93.32
49315;BME280;36672;50.710;12.498;2023-04-02T02:03:00;97755.00;;;5.98;93.57
49315;BME280;36672;50.710;12.498;2023-04-02T02:05:25;97756.41;;;5.94;93.45
49315;BME280;36672;50.710;12.498;2023-04-02T02:07:51;97760.28;;;5.91;93.66
49315;BME280;36672;50.710;12.498;2023-04-02T02:10:25;97766.03;;;5.88;93.80
49315;BME280;36672;50.710;12.498;2023-04-02T02:12:51;97769.94;;;5.85;93.79
49315;BME280;36672;50.710;12.498;2023-04-02T02:15:20;97770.56;;;5.87;94.02
49315;BME280;36672;50.710;12.498;2023-04-02T02:17:46;97775.66;;;5.82;93.78
49315;BME280;36672;50.710;12.498;2023-04-02T02:20:12;97775.03;;;5.80;93.95
49315;BME280;36672;50.710;12.498;2023-04-02T02:22:47;97778.72;;;5.79;94.19
49315;BME280;36672;50.710;12.498;2023-04-02T02:25:13;97784.44;;;5.76;93.80
49315;BME280;36672;50.710;12.498;2023-04-02T02:27:42;97785.75;;;5.65;93.23
49315;BME280;36672;50.710;12.498;2023-04-02T02:30:56;97791.19;;;5.57;93.59
49315;BME280;36672;50.710;12.498;2023-04-02T02:32:57;97798.63;;;5.55;93.91
49315;BME280;36672;50.710;12.498;2023-04-02T02:35:34;97806.66;;;5.55;94.18
49315;BME280;36672;50.710;12.498;2023-04-02T02:38:07;97817.66;;;5.60;94.59
49315;BME280;36672;50.710;12.498;2023-04-02T02:40:38;97816.78;;;5.60;94.51
49315;BME280;36672;50.710;12.498;2023-04-02T02:43:05;97817.44;;;5.62;94.61
49315;BME280;36672;50.710;12.498;2023-04-02T02:45:35;97827.03;;;5.56;94.60
49315;BME280;36672;50.710;12.498;2023-04-02T02:48:02;97834.66;;;5.52;94.45
49315;BME280;36672;50.710;12.498;2023-04-02T02:50:29;97837.22;;;5.46;94.20
49315;BME280;36672;50.710;12.498;2023-04-02T02:52:56;97834.63;;;5.37;94.33
49315;BME280;36672;50.710;12.498;2023-04-02T02:55:29;97846.75;;;5.33;94.47
49315;BME280;36672;50.710;12.498;2023-04-02T02:58:04;97846.63;;;5.27;94.83
49315;BME280;36672;50.710;12.498;2023-04-02T03:00:30;97855.84;;;5.24;94.72
49315;BME280;36672;50.710;12.498;2023-04-02T03:02:57;97851.88;;;5.20;94.78
49315;BME280;36672;50.710;12.498;2023-04-02T03:05:23;97862.59;;;5.20;94.98
49315;BME280;36672;50.710;12.498;2023-04-02T03:07:50;97872.63;;;5.18;95.33
49315;BME280;36672;50.710;12.498;2023-04-02T03:12:53;97875.69;;;5.15;94.88
49315;BME280;36672;50.710;12.498;2023-04-02T03:17:50;97888.91;;;5.16;95.52
49315;BME280;36672;50.710;12.498;2023-04-02T03:20:21;97899.25;;;5.19;95.76
49315;BME280;36672;50.710;12.498;2023-04-02T03:23:15;97900.28;;;5.18;95.18
49315;BME280;36672;50.710;12.498;2023-04-02T03:25:47;97911.81;;;5.19;95.45
49315;BME280;36672;50.710;12.498;2023-04-02T03:28:18;97914.28;;;5.20;95.57
49315;BME280;36672;50.710;12.498;2023-04-02T03:33:16;97925.91;;;5.13;95.04
49315;BME280;36672;50.710;12.498;2023-04-02T03:35:46;97918.13;;;5.03;94.13
49315;BME280;36672;50.710;12.498;2023-04-02T03:38:38;97927.69;;;4.97;94.75
49315;BME280;36672;50.710;12.498;2023-04-02T03:43:36;97939.84;;;4.85;94.20
49315;BME280;36672;50.710;12.498;2023-04-02T03:46:17;97947.94;;;4.77;94.17
49315;BME280;36672;50.710;12.498;2023-04-02T03:48:50;97949.59;;;4.78;95.00
49315;BME280;36672;50.710;12.498;2023-04-02T03:51:18;97956.25;;;4.82;94.92
49315;BME280;36672;50.710;12.498;2023-04-02T03:53:44;97959.94;;;4.81;94.79
49315;BME280;36672;50.710;12.498;2023-04-02T03:56:16;97964.63;;;4.79;94.87
49315;BME280;36672;50.710;12.498;2023-04-02T03:58:45;97970.03;;;4.70;94.31
49315;BME280;36672;50.710;12.498;2023-04-02T04:01:15;97977.56;;;4.67;94.55
49315;BME280;36672;50.710;12.498;2023-04-02T04:03:44;97977.56;;;4.67;95.10
49315;BME280;36672;50.710;12.498;2023-04-02T04:06:23;97986.44;;;4.67;94.80
49315;BME280;36672;50.710;12.498;2023-04-02T04:08:58;97990.13;;;4.66;95.07
49315;BME280;36672;50.710;12.498;2023-04-02T04:11:25;98002.47;;;4.67;95.30
49315;BME280;36672;50.710;12.498;2023-04-02T04:16:40;98013.97;;;4.76;95.14
49315;BME280;36672;50.710;12.498;2023-04-02T04:19:18;98016.66;;;4.76;95.13
49315;BME280;36672;50.710;12.498;2023-04-02T04:21:45;98028.41;;;4.75;95.08
49315;BME280;36672;50.710;12.498;2023-04-02T04:24:18;98030.91;;;4.77;95.91
49315;BME280;36672;50.710;12.498;2023-04-02T04:26:56;98043.59;;;4.74;95.32
49315;BME280;36672;50.710;12.498;2023-04-02T04:32:17;98055.22;;;4.59;94.84
49315;BME280;36672;50.710;12.498;2023-04-02T04:34:51;98058.41;;;4.54;94.65
49315;BME280;36672;50.710;12.498;2023-04-02T04:37:23;98064.59;;;4.54;95.09
49315;BME280;36672;50.710;12.498;2023-04-02T04:42:41;98075.97;;;4.48;95.08
49315;BME280;36672;50.710;12.498;2023-04-02T04:47:50;98088.88;;;4.45;94.82
49315;BME280;36672;50.710;12.498;2023-04-02T04:50:37;98096.72;;;4.38;94.85
49315;BME280;36672;50.710;12.498;2023-04-02T04:53:05;98107.44;;;4.38;94.82
49315;BME280;36672;50.710;12.498;2023-04-02T04:55:36;98102.06;;;4.38;94.91
49315;BME280;36672;50.710;12.498;2023-04-02T04:58:13;98114.13;;;4.34;94.75
49315;BME280;36672;50.710;12.498;2023-04-02T05:00:59;98118.47;;;4.27;95.01
49315;BME280;36672;50.710;12.498;2023-04-02T05:09:00;98146.41;;;3.99;94.95
49315;BME280;36672;50.710;12.498;2023-04-02T05:11:30;98147.59;;;3.97;94.80
49315;BME280;36672;50.710;12.498;2023-04-02T05:14:19;98157.44;;;3.96;94.62
49315;BME280;36672;50.710;12.498;2023-04-02T05:16:44;98154.59;;;3.98;95.43
49315;BME280;36672;50.710;12.498;2023-04-02T05:19:16;98156.09;;;3.92;94.72
49315;BME280;36672;50.710;12.498;2023-04-02T05:21:47;98170.97;;;3.95;95.39
49315;BME280;36672;50.710;12.498;2023-04-02T05:26:42;98177.47;;;3.92;95.72
49315;BME280;36672;50.710;12.498;2023-04-02T05:29:23;98182.66;;;3.85;95.25
49315;BME280;36672;50.710;12.498;2023-04-02T05:31:56;98187.16;;;3.85;95.33
49315;BME280;36672;50.710;12.498;2023-04-02T05:34:24;98196.16;;;3.84;95.21
49315;BME280;36672;50.710;12.498;2023-04-02T05:36:51;98194.16;;;3.86;95.94
49315;BME280;36672;50.710;12.498;2023-04-02T05:39:20;98201.69;;;3.82;95.32
49315;BME280;36672;50.710;12.498;2023-04-02T05:41:46;98204.53;;;3.81;95.83
49315;BME280;36672;50.710;12.498;2023-04-02T05:44:22;98208.38;;;3.78;95.57
49315;BME280;36672;50.710;12.498;2023-04-02T05:46:53;98216.88;;;3.82;96.06
49315;BME280;36672;50.710;12.498;2023-04-02T05:49:26;98224.25;;;3.88;95.67
49315;BME280;36672;50.710;12.498;2023-04-02T05:51:56;98218.56;;;3.91;95.77
49315;BME280;36672;50.710;12.498;2023-04-02T05:54:29;98235.13;;;3.86;95.51
49315;BME280;36672;50.710;12.498;2023-04-02T05:56:59;98238.44;;;3.80;95.63
49315;BME280;36672;50.710;12.498;2023-04-02T05:59:28;98239.59;;;3.78;95.72
49315;BME280;36672;50.710;12.498;2023-04-02T06:01:58;98250.44;;;3.68;95.25
49315;BME280;36672;50.710;12.498;2023-04-02T06:04:33;98255.09;;;3.66;95.64
49315;BME280;36672;50.710;12.498;2023-04-02T06:09:56;98263.56;;;3.53;95.04
49315;BME280;36672;50.710;12.498;2023-04-02T06:14:52;98269.03;;;3.43;95.03
49315;BME280;36672;50.710;12.498;2023-04-02T06:17:18;98276.22;;;3.42;95.29
49315;BME280;36672;50.710;12.498;2023-04-02T06:19:44;98283.69;;;3.39;95.40
49315;BME280;36672;50.710;12.498;2023-04-02T06:24:40;98292.91;;;3.45;95.86
49315;BME280;36672;50.710;12.498;2023-04-02T06:27:07;98300.25;;;3.51;96.03
49315;BME280;36672;50.710;12.498;2023-04-02T06:29:37;98308.25;;;3.42;94.86
49315;BME280;36672;50.710;12.498;2023-04-02T06:32:08;98312.56;;;3.35;94.84
49315;BME280;36672;50.710;12.498;2023-04-02T06:34:35;98320.19;;;3.30;95.10
49315;BME280;36672;50.710;12.498;2023-04-02T06:37:02;98321.53;;;3.26;94.60
49315;BME280;36672;50.710;12.498;2023-04-02T06:39:28;98330.84;;;3.22;94.70
49315;BME280;36672;50.710;12.498;2023-04-02T06:41:59;98328.69;;;3.25;95.17
49315;BME280;36672;50.710;12.498;2023-04-02T06:44:25;98344.03;;;3.23;94.80
49315;BME280;36672;50.710;12.498;2023-04-02T06:46:56;98344.56;;;3.27;94.87
49315;BME280;36672;50.710;12.498;2023-04-02T06:51:58;98355.44;;;3.34;94.72
49315;BME280;36672;50.710;12.498;2023-04-02T06:54:25;98361.41;;;3.28;94.39
49315;BME280;36672;50.710;12.498;2023-04-02T06:56:50;98371.78;;;3.31;95.26
49315;BME280;36672;50.710;12.498;2023-04-02T06:59:16;98346.97;;;3.12;94.76
49315;BME280;36672;50.710;12.498;2023-04-02T07:01:44;98381.78;;;3.29;95.15
49315;BME280;36672;50.710;12.498;2023-04-02T07:04:11;98376.97;;;3.32;94.98
49315;BME280;36672;50.710;12.498;2023-04-02T07:06:36;98392.63;;;3.27;94.49
49315;BME280;36672;50.710;12.498;2023-04-02T07:09:01;98391.56;;;3.20;94.53
49315;BME280;36672;50.710;12.498;2023-04-02T07:11:27;98397.22;;;3.17;94.43
49315;BME280;36672;50.710;12.498;2023-04-02T07:13:52;98407.22;;;3.15;94.75
49315;BME280;36672;50.710;12.498;2023-04-02T07:16:21;98401.72;;;3.16;94.50
49315;BME280;36672;50.710;12.498;2023-04-02T07:18:49;98415.50;;;3.12;94.60
49315;BME280;36672;50.710;12.498;2023-04-02T07:21:14;98416.81;;;3.07;94.87
49315;BME280;36672;50.710;12.498;2023-04-02T07:23:39;98428.81;;;3.03;94.04
49315;BME280;36672;50.710;12.498;2023-04-02T07:26:06;98427.97;;;3.03;94.23
49315;BME280;36672;50.710;12.498;2023-04-02T07:28:32;98431.31;;;3.05;94.76
49315;BME280;36672;50.710;12.498;2023-04-02T07:30:57;98439.16;;;3.06;94.38
49315;BME280;36672;50.710;12.498;2023-04-02T07:33:23;98442.69;;;3.07;94.85
49315;BME280;36672;50.710;12.498;2023-04-02T07:35:49;98451.78;;;3.14;94.80
49315;BME280;36672;50.710;12.498;2023-04-02T07:38:15;98462.56;;;3.13;94.50
49315;BME280;36672;50.710;12.498;2023-04-02T07:40:40;98465.50;;;3.19;95.24
49315;BME280;36672;50.710;12.498;2023-04-02T07:43:06;98470.66;;;3.21;94.21
49315;BME280;36672;50.710;12.498;2023-04-02T07:45:31;98469.81;;;3.20;94.68
49315;BME280;36672;50.710;12.498;2023-04-02T07:47:57;98477.38;;;3.25;94.35
49315;BME280;36672;50.710;12.498;2023-04-02T07:50:27;98471.34;;;3.23;94.45
49315;BME280;36672;50.710;12.498;2023-04-02T07:52:53;98480.50;;;3.20;93.80
49315;BME280;36672;50.710;12.498;2023-04-02T07:55:18;98477.63;;;3.14;94.16
49315;BME280;36672;50.710;12.498;2023-04-02T07:57:50;98495.09;;;3.08;93.30
49315;BME280;36672;50.710;12.498;2023-04-02T08:00:16;98502.72;;;3.03;93.67
49315;BME280;36672;50.710;12.498;2023-04-02T08:02:42;98513.06;;;3.06;93.87
49315;BME280;36672;50.710;12.498;2023-04-02T08:05:07;98511.22;;;3.06;93.79
49315;BME280;36672;50.710;12.498;2023-04-02T08:07:33;98517.06;;;3.02;93.53
49315;BME280;36672;50.710;12.498;2023-04-02T08:09:58;98520.88;;;2.99;93.39
49315;BME280;36672;50.710;12.498;2023-04-02T08:12:23;98526.66;;;2.94;92.86
49315;BME280;36672;50.710;12.498;2023-04-02T08:14:49;98527.41;;;3.05;93.64
49315;BME280;36672;50.710;12.498;2023-04-02T08:17:14;98537.09;;;3.06;93.15
49315;BME280;36672;50.710;12.498;2023-04-02T08:19:39;98542.34;;;2.98;92.51
49315;BME280;36672;50.710;12.498;2023-04-02T08:22:05;98538.31;;;2.93;91.97
49315;BME280;36672;50.710;12.498;2023-04-02T08:24:30;98544.13;;;2.89;92.20
49315;BME280;36672;50.710;12.498;2023-04-02T08:26:55;98554.63;;;2.90;92.52
49315;BME280;36672;50.710;12.498;2023-04-02T08:29:21;98559.41;;;2.87;92.32
49315;BME280;36672;50.710;12.498;2023-04-02T08:31:46;98558.28;;;2.89;93.14
49315;BME280;36672;50.710;12.498;2023-04-02T08:34:12;98567.28;;;2.88;92.73
49315;BME280;36672;50.710;12.498;2023-04-02T08:36:37;98577.00;;;2.80;92.65
49315;BME280;36672;50.710;12.498;2023-04-02T08:39:04;98580.25;;;2.73;92.62
49315;BME280;36672;50.710;12.498;2023-04-02T08:41:33;98582.84;;;2.65;92.02
49315;BME280;36672;50.710;12.498;2023-04-02T08:46:47;98596.44;;;2.72;92.77
49315;BME280;36672;50.710;12.498;2023-04-02T08:49:15;98604.03;;;2.67;92.97
49315;BME280;36672;50.710;12.498;2023-04-02T08:51:41;98586.19;;;2.67;93.37
49315;BME280;36672;50.710;12.498;2023-04-02T09:01:54;98612.75;;;2.69;93.16
49315;BME280;36672;50.710;12.498;2023-04-02T09:04:21;98626.75;;;2.71;92.40
49315;BME280;36672;50.710;12.498;2023-04-02T09:06:47;98624.41;;;2.68;92.42
49315;BME280;36672;50.710;12.498;2023-04-02T09:09:13;98625.38;;;2.67;92.49
49315;BME280;36672;50.710;12.498;2023-04-02T09:14:08;98628.88;;;2.67;92.21
49315;BME280;36672;50.710;12.498;2023-04-02T09:22:07;98640.50;;;2.76;92.40
49315;BME280;36672;50.710;12.498;2023-04-02T09:24:33;98650.31;;;2.85;92.82
49315;BME280;36672;50.710;12.498;2023-04-02T09:26:59;98652.22;;;2.93;92.57
49315;BME280;36672;50.710;12.498;2023-04-02T09:29:41;98657.84;;;2.90;91.84
49315;BME280;36672;50.710;12.498;2023-04-02T09:34:38;98671.38;;;2.78;91.71
49315;BME280;36672;50.710;12.498;2023-04-02T09:37:07;98676.59;;;2.80;92.06
49315;BME280;36672;50.710;12.498;2023-04-02T09:39:33;98682.75;;;2.81;91.38
49315;BME280;36672;50.710;12.498;2023-04-02T09:41:59;98691.75;;;2.80;91.16
49315;BME280;36672;50.710;12.498;2023-04-02T09:44:29;98688.91;;;2.81;91.09
49315;BME280;36672;50.710;12.498;2023-04-02T09:46:56;98692.59;;;2.80;91.50
49315;BME280;36672;50.710;12.498;2023-04-02T09:49:28;98702.97;;;2.83;91.43
49315;BME280;36672;50.710;12.498;2023-04-02T09:54:35;98709.81;;;2.96;91.29
49315;BME280;36672;50.710;12.498;2023-04-02T09:57:16;98714.25;;;3.05;91.64
49315;BME280;36672;50.710;12.498;2023-04-02T09:59:42;98718.59;;;3.16;91.97
49315;BME280;36672;50.710;12.498;2023-04-02T10:02:21;98733.56;;;3.26;91.50
49315;BME280;36672;50.710;12.498;2023-04-02T10:04:47;98732.69;;;3.36;91.30
49315;BME280;36672;50.710;12.498;2023-04-02T10:09:59;98743.97;;;3.30;89.55
49315;BME280;36672;50.710;12.498;2023-04-02T10:12:25;98748.16;;;3.32;89.61
49315;BME280;36672;50.710;12.498;2023-04-02T10:14:51;98735.22;;;3.37;91.15
49315;BME280;36672;50.710;12.498;2023-04-02T10:17:19;98747.38;;;3.50;90.19
49315;BME280;36672;50.710;12.498;2023-04-02T10:19:59;98749.91;;;3.51;89.72
49315;BME280;36672;50.710;12.498;2023-04-02T10:22:30;98756.78;;;3.54;89.21
49315;BME280;36672;50.710;12.498;2023-04-02T10:24:56;98751.72;;;3.51;87.58
49315;BME280;36672;50.710;12.498;2023-04-02T10:27:31;98764.19;;;3.60;88.39
49315;BME280;36672;50.710;12.498;2023-04-02T10:30:07;98767.34;;;3.46;85.04
49315;BME280;36672;50.710;12.498;2023-04-02T10:35:20;98771.91;;;3.35;82.33
49315;BME280;36672;50.710;12.498;2023-04-02T10:37:59;98779.03;;;3.45;84.39
49315;BME280;36672;50.710;12.498;2023-04-02T10:43:25;98791.00;;;3.68;85.19
49315;BME280;36672;50.710;12.498;2023-04-02T10:45:53;98791.47;;;3.64;nan
49315;BME280;36672;50.710;12.498;2023-04-02T10:53:15;98805.25;;;3.59;82.48
49315;BME280;36672;50.710;12.498;2023-04-02T10:55:44;98811.53;;;3.68;82.82
49315;BME280;36672;50.710;12.498;2023-04-02T10:58:20;98811.94;;;3.73;81.21
49315;BME280;36672;50.710;12.498;2023-04-02T11:00:46;98813.47;;;3.75;81.07
49315;BME280;36672;50.710;12.498;2023-04-02T11:03:16;98826.63;;;3.87;80.85
49315;BME280;36672;50.710;12.498;2023-04-02T11:10:53;98837.75;;;3.54;76.02
49315;BME280;36672;50.710;12.498;2023-04-02T11:13:24;98843.41;;;3.51;77.75
49315;BME280;36672;50.710;12.498;2023-04-02T11:15:50;98845.63;;;3.56;78.10
49315;BME280;36672;50.710;12.498;2023-04-02T11:18:26;98840.38;;;3.64;77.89
49315;BME280;36672;50.710;12.498;2023-04-02T11:20:59;98845.88;;;3.63;75.52
49315;BME280;36672;50.710;12.498;2023-04-02T11:23:25;98847.41;;;3.65;76.74
49315;BME280;36672;50.710;12.498;2023-04-02T11:25:51;98853.25;;;3.79;76.90
49315;BME280;36672;50.710;12.498;2023-04-02T11:28:37;98855.22;;;3.86;76.24
49315;BME280;36672;50.710;12.498;2023-04-02T11:31:02;98858.06;;;4.03;76.71
49315;BME280;36672;50.710;12.498;2023-04-02T11:35:57;98854.66;;;4.29;75.88
49315;BME280;36672;50.710;12.498;2023-04-02T11:40:51;98870.78;;;4.19;73.87
49315;BME280;36672;50.710;12.498;2023-04-02T11:48:36;98878.22;;;3.97;75.40
49315;BME280;36672;50.710;12.498;2023-04-02T11:53:47;98891.72;;;3.68;76.27
49315;BME280;36672;50.710;12.498;2023-04-02T12:11:16;98919.44;;;3.57;77.95
49315;BME280;36672;50.710;12.498;2023-04-02T12:16:09;98918.06;;;3.53;77.79
49315;BME280;36672;50.710;12.498;2023-04-02T12:18:35;98923.09;;;3.56;78.35
49315;BME280;36672;50.710;12.498;2023-04-02T12:21:05;98924.69;;;3.49;77.41
49315;BME280;36672;50.710;12.498;2023-04-02T12:23:33;98927.91;;;3.52;78.39
49315;BME280;36672;50.710;12.498;2023-04-02T12:26:00;98932.84;;;3.47;77.85
49315;BME280;36672;50.710;12.498;2023-04-02T12:28:27;98928.63;;;3.45;78.03
49315;BME280;36672;50.710;12.498;2023-04-02T12:31:01;98933.81;;;3.46;77.88
49315;BME280;36672;50.710;12.498;2023-04-02T12:33:31;98944.06;;;3.51;78.46
49315;BME280;36672;50.710;12.498;2023-04-02T12:36:00;98950.41;;;3.50;77.89
49315;BME280;36672;50.710;12.498;2023-04-02T12:38:34;98949.13;;;3.54;78.14
49315;BME280;36672;50.710;12.498;2023-04-02T12:41:01;98950.94;;;3.53;76.80
49315;BME280;36672;50.710;12.498;2023-04-02T12:43:28;98960.38;;;3.48;77.42
49315;BME280;36672;50.710;12.498;2023-04-02T12:45:55;98964.59;;;3.50;78.17
49315;BME280;36672;50.710;12.498;2023-04-02T12:48:22;98974.47;;;3.50;77.79
49315;BME280;36672;50.710;12.498;2023-04-02T12:50:47;98965.56;;;3.49;78.51
49315;BME280;36672;50.710;12.498;2023-04-02T12:53:18;98965.56;;;3.49;78.28
49315;BME280;36672;50.710;12.498;2023-04-02T12:55:46;98970.50;;;3.44;78.20
49315;BME280;36672;50.710;12.498;2023-04-02T12:58:57;98972.19;;;3.55;78.40
49315;BME280;36672;50.710;12.498;2023-04-02T13:01:16;98970.75;;;3.61;78.39
49315;BME280;36672;50.710;12.498;2023-04-02T13:03:42;98976.97;;;3.61;77.38
49315;BME280;36672;50.710;12.498;2023-04-02T13:06:16;98982.44;;;3.59;77.23
49315;BME280;36672;50.710;12.498;2023-04-02T13:08:43;98984.28;;;3.59;77.17
49315;BME280;36672;50.710;12.498;2023-04-02T13:11:08;98927.81;;;3.24;76.76
49315;BME280;36672;50.710;12.498;2023-04-02T13:13:34;98989.31;;;3.72;78.06
49315;BME280;36672;50.710;12.498;2023-04-02T13:16:42;98985.66;;;3.73;77.23
49315;BME280;36672;50.710;12.498;2023-04-02T13:18:48;98996.50;;;3.71;76.12
49315;BME280;36672;50.710;12.498;2023-04-02T13:21:24;98996.66;;;3.60;75.64
49315;BME280;36672;50.710;12.498;2023-04-02T13:23:52;99004.25;;;3.55;76.92
49315;BME280;36672;50.710;12.498;2023-04-02T13:31:27;98996.09;;;3.47;77.33
49315;BME280;36672;50.710;12.498;2023-04-02T13:33:53;98997.50;;;3.51;77.10
49315;BME280;36672;50.710;12.498;2023-04-02T13:36:18;99009.88;;;3.62;77.14
49315;BME280;36672;50.710;12.498;2023-04-02T13:38:43;99002.00;;;3.60;75.81
49315;BME280;36672;50.710;12.498;2023-04-02T13:42:09;99008.72;;;3.64;75.69
49315;BME280;36672;50.710;12.498;2023-04-02T13:44:03;99008.31;;;3.69;75.02
49315;BME280;36672;50.710;12.498;2023-04-02T13:46:30;99007.03;;;3.73;75.66
49315;BME280;36672;50.710;12.498;2023-04-02T13:48:55;99013.19;;;3.83;76.60
49315;BME280;36672;50.710;12.498;2023-04-02T13:51:22;99018.13;;;3.88;76.21
49315;BME280;36672;50.710;12.498;2023-04-02T13:53:48;99017.25;;;3.87;76.08
49315;BME280;36672;50.710;12.498;2023-04-02T13:56:15;99022.31;;;3.90;76.16
49315;BME280;36672;50.710;12.498;2023-04-02T13:58:41;99024.69;;;3.94;76.14
49315;BME280;36672;50.710;12.498;2023-04-02T14:01:06;99022.19;;;3.92;75.91
49315;BME280;36672;50.710;12.498;2023-04-02T14:03:31;99029.91;;;3.95;75.54
49315;BME280;36672;50.710;12.498;2023-04-02T14:11:09;99029.59;;;4.08;74.44
49315;BME280;36672;50.710;12.498;2023-04-02T14:13:45;99032.28;;;4.08;74.11
49315;BME280;36672;50.710;12.498;2023-04-02T14:23:57;99046.41;;;4.28;73.92
49315;BME280;36672;50.710;12.498;2023-04-02T14:28:59;99046.53;;;4.64;71.95
49315;BME280;36672;50.710;12.498;2023-04-02T14:31:33;99047.63;;;4.71;72.22
49315;BME280;36672;50.710;12.498;2023-04-02T14:42:02;99050.75;;;4.67;70.62
49315;BME280;36672;50.710;12.498;2023-04-02T14:44:31;99060.22;;;4.61;70.19
49315;BME280;36672;50.710;12.498;2023-04-02T14:49:44;99056.81;;;4.31;71.26
49315;BME280;36672;50.710;12.498;2023-04-02T14:52:15;99069.25;;;4.22;71.15
49315;BME280;36672;50.710;12.498;2023-04-02T15:00:03;99056.56;;;4.24;70.81
49315;BME280;36672;50.710;12.498;2023-04-02T15:02:39;99068.25;;;4.23;71.60
49315;BME280;36672;50.710;12.498;2023-04-02T15:05:32;99069.78;;;4.26;71.78
49315;BME280;36672;50.710;12.498;2023-04-02T15:08:05;99077.97;;;4.24;71.34
49315;BME280;36672;50.710;12.498;2023-04-02T15:10:33;99078.09;;;4.23;71.17
49315;BME280;36672;50.710;12.498;2023-04-02T15:13:02;99080.91;;;4.21;71.75
49315;BME280;36672;50.710;12.498;2023-04-02T15:15:42;99080.66;;;4.15;70.88
49315;BME280;36672;50.710;12.498;2023-04-02T15:18:11;99087.97;;;4.13;70.85
49315;BME280;36672;50.710;12.498;2023-04-02T15:20:38;99080.53;;;4.06;70.93
49315;BME280;36672;50.710;12.498;2023-04-02T15:23:09;99079.69;;;4.06;71.43
49315;BME280;36672;50.710;12.498;2023-04-02T15:25:47;99081.25;;;3.99;70.61
49315;BME280;36672;50.710;12.498;2023-04-02T15:30:44;99093.50;;;4.01;71.45
49315;BME280;36672;50.710;12.498;2023-04-02T15:33:25;99090.41;;;4.06;72.20
49315;BME280;36672;50.710;12.498;2023-04-02T15:38:44;99089.41;;;4.07;72.13
49315;BME280;36672;50.710;12.498;2023-04-02T15:43:43;99101.09;;;3.96;72.03
49315;BME280;36672;50.710;12.498;2023-04-02T15:46:24;99107.72;;;3.92;71.92
49315;BME280;36672;50.710;12.498;2023-04-02T15:56:22;99121.94;;;3.92;72.25
49315;BME280;36672;50.710;12.498;2023-04-02T16:06:25;99130.78;;;3.73;69.87
49315;BME280;36672;50.710;12.498;2023-04-02T16:11:20;99135.72;;;3.68;69.21
49315;BME280;36672;50.710;12.498;2023-04-02T16:13:46;99139.38;;;3.67;70.19
49315;BME280;36672;50.710;12.498;2023-04-02T16:19:02;99142.06;;;3.77;69.61
49315;BME280;36672;50.710;12.498;2023-04-02T16:21:33;99149.25;;;3.77;68.59
49315;BME280;36672;50.710;12.498;2023-04-02T16:24:04;99149.09;;;3.68;68.75
49315;BME280;36672;50.710;12.498;2023-04-02T16:29:17;99160.91;;;3.66;68.37
49315;BME280;36672;50.710;12.498;2023-04-02T16:36:56;99174.13;;;3.67;67.51
49315;BME280;36672;50.710;12.498;2023-04-02T16:41:57;99180.88;;;3.62;68.30
49315;BME280;36672;50.710;12.498;2023-04-02T16:44:29;99176.50;;;3.61;68.04
49315;BME280;36672;50.710;12.498;2023-04-02T16:47:01;99190.44;;;3.64;69.06